sensor_id;sensor_type;location;lat;lon;timestamp;pressure;altitude;pressure_sealevel;temperature;humidity
73429;BME280;61643;49.564;17.412;2023-11-22T00:00:55;98169.44;;;2.48;100.00
73429;BME280;61643;49.564;17.412;2023-11-22T00:03:21;98174.34;;;2.51;100.00
73429;BME280;61643;49.564;17.412;2023-11-22T00:05:50;98173.94;;;2.54;100.00
73429;BME280;61643;49.564;17.412;2023-11-22T00:08:17;98181.06;;;2.54;100.00
73429;BME280;61643;49.564;17.412;2023-11-22T00:10:43;98192.13;;;2.64;100.00
73429;BME280;61643;49.564;17.412;2023-11-22T00:13:10;98181.88;;;2.61;100.00
73429;BME280;61643;49.564;17.412;2023-11-22T00:15:37;98187.84;;;2.56;100.00
73429;BME280;61643;49.564;17.412;2023-11-22T00:18:03;98184.78;;;2.53;100.00
73429;BME280;61643;49.564;17.412;2023-11-22T00:20:30;98191.13;;;2.38;100.00
73429;BME280;61643;49.564;17.412;2023-11-22T00:22:56;98200.72;;;2.33;100.00
73429;BME280;61643;49.564;17.412;2023-11-22T00:25:22;98190.28;;;2.25;100.00
73429;BME280;61643;49.564;17.412;2023-11-22T00:27:48;98189.28;;;2.13;100.00
73429;BME280;61643;49.564;17.412;2023-11-22T00:30:15;98197.44;;;2.24;100.00
73429;BME280;61643;49.564;17.412;2023-11-22T00:32:41;98201.53;;;2.20;100.00
73429;BME280;61643;49.564;17.412;2023-11-22T00:35:07;98211.13;;;1.95;100.00
73429;BME280;61643;49.564;17.412;2023-11-22T00:37:34;98206.81;;;1.81;100.00
73429;BME280;61643;49.564;17.412;2023-11-22T00:40:03;98217.38;;;1.74;100.00
73429;BME280;61643;49.564;17.412;2023-11-22T00:42:47;98220.44;;;1.78;100.00
73429;BME280;61643;49.564;17.412;2023-11-22T00:45:13;98221.69;;;1.82;100.00
73429;BME280;61643;49.564;17.412;2023-11-22T00:47:39;98225.19;;;1.89;100.00
73429;BME280;61643;49.564;17.412;2023-11-22T00:50:06;98231.91;;;1.85;100.00
73429;BME280;61643;49.564;17.412;2023-11-22T00:52:32;98237.44;;;1.90;100.00
73429;BME280;61643;49.564;17.412;2023-11-22T00:54:58;98229.47;;;1.83;100.00
73429;BME280;61643;49.564;17.412;2023-11-22T00:57:24;98238.81;;;1.73;100.00
73429;BME280;61643;49.564;17.412;2023-11-22T00:59:53;98253.69;;;1.67;100.00
73429;BME280;61643;49.564;17.412;2023-11-22T01:02:19;98251.88;;;1.68;100.00
73429;BME280;61643;49.564;17.412;2023-11-22T01:04:46;98250.22;;;1.67;100.00
73429;BME280;61643;49.564;17.412;2023-11-22T01:07:12;98262.28;;;1.69;100.00
73429;BME280;61643;49.564;17.412;2023-11-22T01:09:38;98264.72;;;1.71;100.00
73429;BME280;61643;49.564;17.412;2023-11-22T01:12:04;98262.72;;;1.73;100.00
73429;BME280;61643;49.564;17.412;2023-11-22T01:14:30;98266.13;;;1.67;100.00
73429;BME280;61643;49.564;17.412;2023-11-22T01:16:56;98264.31;;;1.74;100.00
73429;BME280;61643;49.564;17.412;2023-11-22T01:19:22;98271.66;;;1.72;100.00
73429;BME280;61643;49.564;17.412;2023-11-22T01:21:48;98266.38;;;1.72;100.00
73429;BME280;61643;49.564;17.412;2023-11-22T01:24:14;98268.63;;;1.81;100.00
73429;BME280;61643;49.564;17.412;2023-11-22T01:26:40;98274.16;;;1.80;100.00
73429;BME280;61643;49.564;17.412;2023-11-22T01:29:06;98281.56;;;1.43;100.00
73429;BME280;61643;49.564;17.412;2023-11-22T01:31:32;98284.63;;;1.40;100.00
73429;BME280;61643;49.564;17.412;2023-11-22T01:34:01;98285.44;;;1.41;100.00
73429;BME280;61643;49.564;17.412;2023-11-22T01:36:27;98287.03;;;1.35;100.00
73429;BME280;61643;49.564;17.412;2023-11-22T01:38:53;98277.09;;;1.44;100.00
73429;BME280;61643;49.564;17.412;2023-11-22T01:41:20;98279.53;;;1.52;100.00
73429;BME280;61643;49.564;17.412;2023-11-22T01:43:47;98284.66;;;1.54;100.00
73429;BME280;61643;49.564;17.412;2023-11-22T01:46:23;98290.75;;;1.47;100.00
73429;BME280;61643;49.564;17.412;2023-11-22T01:48:52;98290.38;;;1.51;100.00
73429;BME280;61643;49.564;17.412;2023-11-22T01:51:22;98294.41;;;1.40;100.00
73429;BME280;61643;49.564;17.412;2023-11-22T01:53:52;98293.19;;;1.49;100.00
73429;BME280;61643;49.564;17.412;2023-11-22T01:56:20;98297.91;;;1.47;100.00
73429;BME280;61643;49.564;17.412;2023-11-22T01:58:47;98308.22;;;1.35;100.00
73429;BME280;61643;49.564;17.412;2023-11-22T02:01:15;98317.25;;;1.41;100.00
73429;BME280;61643;49.564;17.412;2023-11-22T02:03:41;98314.78;;;1.39;100.00
73429;BME280;61643;49.564;17.412;2023-11-22T02:06:08;98313.81;;;1.47;100.00
73429;BME280;61643;49.564;17.412;2023-11-22T02:08:35;98312.13;;;1.39;100.00
73429;BME280;61643;49.564;17.412;2023-11-22T02:11:01;98309.41;;;1.26;100.00
73429;BME280;61643;49.564;17.412;2023-11-22T02:13:31;98314.97;;;1.04;100.00
73429;BME280;61643;49.564;17.412;2023-11-22T02:15:57;98331.78;;;1.17;100.00
73429;BME280;61643;49.564;17.412;2023-11-22T02:18:28;98333.53;;;1.04;100.00
73429;BME280;61643;49.564;17.412;2023-11-22T02:20:54;98342.69;;;1.01;100.00
73429;BME280;61643;49.564;17.412;2023-11-22T02:23:20;98335.06;;;0.91;100.00
73429;BME280;61643;49.564;17.412;2023-11-22T02:25:46;98340.75;;;0.88;100.00
73429;BME280;61643;49.564;17.412;2023-11-22T02:28:12;98345.31;;;0.73;100.00
73429;BME280;61643;49.564;17.412;2023-11-22T02:30:38;98349.25;;;0.84;100.00
73429;BME280;61643;49.564;17.412;2023-11-22T02:33:04;98347.81;;;0.81;100.00
73429;BME280;61643;49.564;17.412;2023-11-22T02:35:31;98353.44;;;0.93;100.00
73429;BME280;61643;49.564;17.412;2023-11-22T02:37:58;98367.69;;;0.92;100.00
73429;BME280;61643;49.564;17.412;2023-11-22T02:40:25;98366.28;;;0.96;100.00
73429;BME280;61643;49.564;17.412;2023-11-22T02:42:52;98360.22;;;1.02;100.00
73429;BME280;61643;49.564;17.412;2023-11-22T02:45:21;98355.69;;;0.96;100.00
73429;BME280;61643;49.564;17.412;2023-11-22T02:47:50;98358.91;;;0.91;100.00
73429;BME280;61643;49.564;17.412;2023-11-22T02:50:17;98363.38;;;0.91;100.00
73429;BME280;61643;49.564;17.412;2023-11-22T02:52:43;98363.91;;;0.80;100.00
73429;BME280;61643;49.564;17.412;2023-11-22T02:55:10;98371.91;;;0.65;100.00
73429;BME280;61643;49.564;17.412;2023-11-22T02:57:36;98377.81;;;0.61;100.00
73429;BME280;61643;49.564;17.412;2023-11-22T03:00:04;98381.25;;;0.40;100.00
73429;BME280;61643;49.564;17.412;2023-11-22T03:02:30;98384.34;;;0.43;100.00
73429;BME280;61643;49.564;17.412;2023-11-22T03:04:58;98380.13;;;0.49;100.00
73429;BME280;61643;49.564;17.412;2023-11-22T03:07:25;98386.44;;;0.48;100.00
73429;BME280;61643;49.564;17.412;2023-11-22T03:09:51;98389.06;;;0.48;100.00
73429;BME280;61643;49.564;17.412;2023-11-22T03:12:19;98396.63;;;0.51;100.00
73429;BME280;61643;49.564;17.412;2023-11-22T03:14:49;98403.13;;;0.48;100.00
73429;BME280;61643;49.564;17.412;2023-11-22T03:17:15;98399.88;;;0.46;100.00
73429;BME280;61643;49.564;17.412;2023-11-22T03:19:41;98408.16;;;0.43;100.00
73429;BME280;61643;49.564;17.412;2023-11-22T03:22:07;98410.97;;;0.57;100.00
73429;BME280;61643;49.564;17.412;2023-11-22T03:24:33;98413.63;;;0.57;100.00
73429;BME280;61643;49.564;17.412;2023-11-22T03:27:04;98417.03;;;0.51;100.00
73429;BME280;61643;49.564;17.412;2023-11-22T03:29:30;98411.19;;;0.40;100.00
73429;BME280;61643;49.564;17.412;2023-11-22T03:31:55;98404.91;;;0.41;100.00
73429;BME280;61643;49.564;17.412;2023-11-22T03:34:21;98417.53;;;0.39;100.00
73429;BME280;61643;49.564;17.412;2023-11-22T03:36:47;98420.28;;;0.31;100.00
73429;BME280;61643;49.564;17.412;2023-11-22T03:39:17;98419.41;;;0.45;100.00
73429;BME280;61643;49.564;17.412;2023-11-22T03:41:43;98431.31;;;0.35;100.00
73429;BME280;61643;49.564;17.412;2023-11-22T03:44:09;98416.88;;;0.37;100.00
73429;BME280;61643;49.564;17.412;2023-11-22T03:46:39;98415.81;;;0.32;100.00
73429;BME280;61643;49.564;17.412;2023-11-22T03:49:05;98427.91;;;0.41;100.00
73429;BME280;61643;49.564;17.412;2023-11-22T03:51:35;98431.75;;;0.38;100.00
73429;BME280;61643;49.564;17.412;2023-11-22T03:54:02;98433.13;;;0.34;100.00
73429;BME280;61643;49.564;17.412;2023-11-22T03:56:28;98426.53;;;0.45;100.00
73429;BME280;61643;49.564;17.412;2023-11-22T03:58:55;98444.69;;;0.48;100.00
73429;BME280;61643;49.564;17.412;2023-11-22T04:01:21;98452.19;;;0.44;100.00
73429;BME280;61643;49.564;17.412;2023-11-22T04:03:48;98439.50;;;0.40;100.00
73429;BME280;61643;49.564;17.412;2023-11-22T04:06:18;98440.69;;;0.37;100.00
73429;BME280;61643;49.564;17.412;2023-11-22T04:08:45;98449.56;;;0.30;100.00
73429;BME280;61643;49.564;17.412;2023-11-22T04:11:14;98463.91;;;0.35;100.00
73429;BME280;61643;49.564;17.412;2023-11-22T04:13:40;98451.28;;;0.37;100.00
73429;BME280;61643;49.564;17.412;2023-11-22T04:16:07;98463.53;;;0.38;100.00
73429;BME280;61643;49.564;17.412;2023-11-22T04:18:41;98466.28;;;0.30;100.00
73429;BME280;61643;49.564;17.412;2023-11-22T04:21:08;98465.81;;;0.27;100.00
73429;BME280;61643;49.564;17.412;2023-11-22T04:23:34;98473.66;;;0.35;100.00
73429;BME280;61643;49.564;17.412;2023-11-22T04:26:02;98487.66;;;0.29;100.00
73429;BME280;61643;49.564;17.412;2023-11-22T04:28:28;98485.25;;;0.34;100.00
73429;BME280;61643;49.564;17.412;2023-11-22T04:30:57;98474.88;;;0.32;100.00
73429;BME280;61643;49.564;17.412;2023-11-22T04:33:24;98479.22;;;0.40;100.00
73429;BME280;61643;49.564;17.412;2023-11-22T04:35:50;98477.22;;;0.42;100.00
73429;BME280;61643;49.564;17.412;2023-11-22T04:38:17;98476.56;;;0.40;100.00
73429;BME280;61643;49.564;17.412;2023-11-22T04:40:44;98490.44;;;0.42;100.00
73429;BME280;61643;49.564;17.412;2023-11-22T04:43:10;98502.41;;;0.38;100.00
73429;BME280;61643;49.564;17.412;2023-11-22T04:45:36;98528.34;;;0.42;100.00
73429;BME280;61643;49.564;17.412;2023-11-22T04:48:02;98522.97;;;0.36;100.00
73429;BME280;61643;49.564;17.412;2023-11-22T04:50:29;98521.78;;;0.38;100.00
73429;BME280;61643;49.564;17.412;2023-11-22T04:52:54;98517.38;;;0.45;100.00
73429;BME280;61643;49.564;17.412;2023-11-22T04:55:21;98526.53;;;0.43;100.00
73429;BME280;61643;49.564;17.412;2023-11-22T04:57:49;98521.25;;;0.28;100.00
73429;BME280;61643;49.564;17.412;2023-11-22T05:00:16;98525.06;;;0.26;100.00
73429;BME280;61643;49.564;17.412;2023-11-22T05:02:43;98522.97;;;0.21;100.00
73429;BME280;61643;49.564;17.412;2023-11-22T05:05:09;98527.97;;;0.31;100.00
73429;BME280;61643;49.564;17.412;2023-11-22T05:07:38;98528.63;;;0.18;100.00
73429;BME280;61643;49.564;17.412;2023-11-22T05:10:06;98527.91;;;0.24;100.00
73429;BME280;61643;49.564;17.412;2023-11-22T05:12:35;98546.50;;;0.16;100.00
73429;BME280;61643;49.564;17.412;2023-11-22T05:15:02;98543.69;;;0.18;100.00
73429;BME280;61643;49.564;17.412;2023-11-22T05:17:28;98539.19;;;0.18;100.00
73429;BME280;61643;49.564;17.412;2023-11-22T05:19:54;98542.13;;;0.23;100.00
73429;BME280;61643;49.564;17.412;2023-11-22T05:22:20;98549.31;;;0.15;100.00
73429;BME280;61643;49.564;17.412;2023-11-22T05:24:46;98549.16;;;0.16;100.00
73429;BME280;61643;49.564;17.412;2023-11-22T05:27:12;98548.88;;;0.11;100.00
73429;BME280;61643;49.564;17.412;2023-11-22T05:29:38;98560.56;;;0.17;100.00
73429;BME280;61643;49.564;17.412;2023-11-22T05:32:04;98555.81;;;0.12;100.00
73429;BME280;61643;49.564;17.412;2023-11-22T05:34:30;98559.75;;;0.16;100.00
73429;BME280;61643;49.564;17.412;2023-11-22T05:36:56;98567.97;;;0.21;100.00
73429;BME280;61643;49.564;17.412;2023-11-22T05:39:22;98570.69;;;0.13;100.00
73429;BME280;61643;49.564;17.412;2023-11-22T05:41:48;98576.25;;;0.18;100.00
73429;BME280;61643;49.564;17.412;2023-11-22T05:44:14;98586.13;;;0.24;100.00
73429;BME280;61643;49.564;17.412;2023-11-22T05:46:40;98587.41;;;0.28;100.00
73429;BME280;61643;49.564;17.412;2023-11-22T05:49:08;98585.22;;;0.32;100.00
73429;BME280;61643;49.564;17.412;2023-11-22T05:51:36;98593.53;;;0.29;100.00
73429;BME280;61643;49.564;17.412;2023-11-22T05:54:06;98595.16;;;0.15;100.00
73429;BME280;61643;49.564;17.412;2023-11-22T05:56:32;98616.16;;;0.17;100.00
73429;BME280;61643;49.564;17.412;2023-11-22T05:58:59;98610.31;;;0.21;100.00
73429;BME280;61643;49.564;17.412;2023-11-22T06:01:28;98605.94;;;0.28;100.00
73429;BME280;61643;49.564;17.412;2023-11-22T06:03:54;98611.69;;;0.32;100.00
73429;BME280;61643;49.564;17.412;2023-11-22T06:06:20;98607.84;;;0.34;100.00
73429;BME280;61643;49.564;17.412;2023-11-22T06:08:47;98614.81;;;0.35;100.00
73429;BME280;61643;49.564;17.412;2023-11-22T06:11:14;98621.56;;;0.38;100.00
73429;BME280;61643;49.564;17.412;2023-11-22T06:13:43;98631.78;;;0.41;100.00
73429;BME280;61643;49.564;17.412;2023-11-22T06:16:09;98624.66;;;0.41;100.00
73429;BME280;61643;49.564;17.412;2023-11-22T06:18:35;98626.22;;;0.51;100.00
73429;BME280;61643;49.564;17.412;2023-11-22T06:21:07;98635.41;;;0.40;100.00
73429;BME280;61643;49.564;17.412;2023-11-22T06:23:33;98633.44;;;0.42;100.00
73429;BME280;61643;49.564;17.412;2023-11-22T06:25:59;98639.81;;;0.47;100.00
73429;BME280;61643;49.564;17.412;2023-11-22T06:28:25;98633.72;;;0.47;100.00
73429;BME280;61643;49.564;17.412;2023-11-22T06:30:51;98649.59;;;0.47;100.00
73429;BME280;61643;49.564;17.412;2023-11-22T06:33:17;98661.28;;;0.53;100.00
73429;BME280;61643;49.564;17.412;2023-11-22T06:35:43;98658.44;;;0.39;100.00
73429;BME280;61643;49.564;17.412;2023-11-22T06:38:09;98644.38;;;0.39;100.00
73429;BME280;61643;49.564;17.412;2023-11-22T06:40:35;98660.63;;;0.36;100.00
73429;BME280;61643;49.564;17.412;2023-11-22T06:43:03;98654.06;;;0.32;100.00
73429;BME280;61643;49.564;17.412;2023-11-22T06:45:30;98656.13;;;0.36;100.00
73429;BME280;61643;49.564;17.412;2023-11-22T06:48:00;98663.00;;;0.45;100.00
73429;BME280;61643;49.564;17.412;2023-11-22T06:50:26;98659.53;;;0.45;100.00
73429;BME280;61643;49.564;17.412;2023-11-22T06:52:52;98678.25;;;0.43;100.00
73429;BME280;61643;49.564;17.412;2023-11-22T06:55:18;98689.50;;;0.45;100.00
73429;BME280;61643;49.564;17.412;2023-11-22T06:57:45;98699.53;;;0.50;100.00
73429;BME280;61643;49.564;17.412;2023-11-22T07:00:11;98706.34;;;0.30;100.00
73429;BME280;61643;49.564;17.412;2023-11-22T07:02:38;98711.63;;;0.30;100.00
73429;BME280;61643;49.564;17.412;2023-11-22T07:05:05;98707.22;;;0.22;100.00
73429;BME280;61643;49.564;17.412;2023-11-22T07:07:35;98713.75;;;0.34;100.00
73429;BME280;61643;49.564;17.412;2023-11-22T07:10:02;98721.22;;;0.31;100.00
73429;BME280;61643;49.564;17.412;2023-11-22T07:12:28;98719.41;;;0.31;100.00
73429;BME280;61643;49.564;17.412;2023-11-22T07:14:54;98719.22;;;0.33;100.00
73429;BME280;61643;49.564;17.412;2023-11-22T07:17:21;98718.13;;;0.27;100.00
73429;BME280;61643;49.564;17.412;2023-11-22T07:19:48;98742.41;;;0.31;100.00
73429;BME280;61643;49.564;17.412;2023-11-22T07:22:17;98725.16;;;0.35;100.00
73429;BME280;61643;49.564;17.412;2023-11-22T07:24:46;98727.25;;;0.25;100.00
73429;BME280;61643;49.564;17.412;2023-11-22T07:27:13;98732.59;;;0.17;100.00
73429;BME280;61643;49.564;17.412;2023-11-22T07:29:42;98734.25;;;0.18;100.00
73429;BME280;61643;49.564;17.412;2023-11-22T07:32:09;98744.94;;;0.24;100.00
73429;BME280;61643;49.564;17.412;2023-11-22T07:34:36;98747.50;;;0.18;100.00
73429;BME280;61643;49.564;17.412;2023-11-22T07:37:03;98764.34;;;-0.06;100.00
73429;BME280;61643;49.564;17.412;2023-11-22T07:39:30;98754.44;;;-0.04;100.00
73429;BME280;61643;49.564;17.412;2023-11-22T07:41:56;98752.00;;;-0.14;100.00
73429;BME280;61643;49.564;17.412;2023-11-22T07:44:22;98752.38;;;-0.17;100.00
73429;BME280;61643;49.564;17.412;2023-11-22T07:46:50;98772.28;;;-0.06;100.00
73429;BME280;61643;49.564;17.412;2023-11-22T07:49:19;98780.06;;;-0.05;100.00
73429;BME280;61643;49.564;17.412;2023-11-22T07:51:45;98789.25;;;-0.15;100.00
73429;BME280;61643;49.564;17.412;2023-11-22T07:54:11;98797.16;;;-0.46;100.00
73429;BME280;61643;49.564;17.412;2023-11-22T07:56:43;98782.56;;;-0.34;100.00
73429;BME280;61643;49.564;17.412;2023-11-22T07:59:10;98768.63;;;-0.28;100.00
73429;BME280;61643;49.564;17.412;2023-11-22T08:01:41;98774.03;;;-0.21;100.00
73429;BME280;61643;49.564;17.412;2023-11-22T08:04:09;98774.34;;;-0.16;100.00
73429;BME280;61643;49.564;17.412;2023-11-22T08:06:35;98778.56;;;-0.07;100.00
73429;BME280;61643;49.564;17.412;2023-11-22T08:09:01;98783.47;;;-0.19;100.00
73429;BME280;61643;49.564;17.412;2023-11-22T08:11:28;98784.31;;;-0.18;100.00
73429;BME280;61643;49.564;17.412;2023-11-22T08:13:54;98800.66;;;-0.15;100.00
73429;BME280;61643;49.564;17.412;2023-11-22T08:16:25;98807.91;;;-0.17;100.00
73429;BME280;61643;49.564;17.412;2023-11-22T08:18:52;98816.59;;;0.00;100.00
73429;BME280;61643;49.564;17.412;2023-11-22T08:21:18;98822.44;;;-0.13;100.00
73429;BME280;61643;49.564;17.412;2023-11-22T08:23:47;98817.66;;;-0.17;100.00
73429;BME280;61643;49.564;17.412;2023-11-22T08:26:14;98815.03;;;-0.17;100.00
73429;BME280;61643;49.564;17.412;2023-11-22T08:28:41;98814.41;;;-0.27;100.00
73429;BME280;61643;49.564;17.412;2023-11-22T08:31:07;98820.41;;;-0.33;100.00
73429;BME280;61643;49.564;17.412;2023-11-22T08:33:35;98821.72;;;-0.29;100.00
73429;BME280;61643;49.564;17.412;2023-11-22T08:36:02;98818.03;;;-0.20;100.00
73429;BME280;61643;49.564;17.412;2023-11-22T08:38:30;98819.88;;;-0.29;100.00
73429;BME280;61643;49.564;17.412;2023-11-22T08:41:03;98836.09;;;-0.32;100.00
73429;BME280;61643;49.564;17.412;2023-11-22T08:43:29;98838.72;;;-0.32;100.00
73429;BME280;61643;49.564;17.412;2023-11-22T08:46:01;98846.00;;;-0.26;100.00
73429;BME280;61643;49.564;17.412;2023-11-22T08:48:30;98833.94;;;-0.28;100.00
73429;BME280;61643;49.564;17.412;2023-11-22T08:50:56;98845.13;;;-0.18;100.00
73429;BME280;61643;49.564;17.412;2023-11-22T08:53:23;98850.13;;;-0.23;100.00
73429;BME280;61643;49.564;17.412;2023-11-22T08:55:49;98865.47;;;-0.19;100.00
73429;BME280;61643;49.564;17.412;2023-11-22T08:58:15;98869.13;;;-0.28;100.00
73429;BME280;61643;49.564;17.412;2023-11-22T09:00:41;98864.78;;;-0.52;100.00
73429;BME280;61643;49.564;17.412;2023-11-22T09:03:08;98872.72;;;-0.52;100.00
73429;BME280;61643;49.564;17.412;2023-11-22T09:05:44;98870.19;;;-0.45;100.00
73429;BME280;61643;49.564;17.412;2023-11-22T09:08:11;98880.19;;;-0.63;100.00
73429;BME280;61643;49.564;17.412;2023-11-22T09:10:43;98877.53;;;-0.71;100.00
73429;BME280;61643;49.564;17.412;2023-11-22T09:13:10;98875.25;;;-0.82;100.00
73429;BME280;61643;49.564;17.412;2023-11-22T09:15:37;98872.94;;;-0.69;100.00
73429;BME280;61643;49.564;17.412;2023-11-22T09:18:04;98879.53;;;-0.73;100.00
73429;BME280;61643;49.564;17.412;2023-11-22T09:20:30;98899.22;;;-0.84;100.00
73429;BME280;61643;49.564;17.412;2023-11-22T09:22:56;98904.66;;;-0.85;100.00
73429;BME280;61643;49.564;17.412;2023-11-22T09:25:24;98904.50;;;-0.92;100.00
73429;BME280;61643;49.564;17.412;2023-11-22T09:27:53;98904.16;;;-0.81;100.00
73429;BME280;61643;49.564;17.412;2023-11-22T09:30:29;98933.19;;;-0.65;100.00
73429;BME280;61643;49.564;17.412;2023-11-22T09:33:04;98931.22;;;-0.63;100.00
73429;BME280;61643;49.564;17.412;2023-11-22T09:35:31;98926.09;;;-0.56;100.00
73429;BME280;61643;49.564;17.412;2023-11-22T09:37:58;98938.00;;;-0.60;100.00
73429;BME280;61643;49.564;17.412;2023-11-22T09:40:26;98931.53;;;-0.58;100.00
73429;BME280;61643;49.564;17.412;2023-11-22T09:42:58;98927.22;;;-0.51;100.00
73429;BME280;61643;49.564;17.412;2023-11-22T09:45:25;98938.97;;;-0.61;100.00
73429;BME280;61643;49.564;17.412;2023-11-22T09:47:51;98948.91;;;-0.63;100.00
73429;BME280;61643;49.564;17.412;2023-11-22T09:53:00;98949.25;;;-0.74;100.00
73429;BME280;61643;49.564;17.412;2023-11-22T09:55:28;98958.69;;;-0.80;100.00
73429;BME280;61643;49.564;17.412;2023-11-22T09:57:56;98949.75;;;-0.79;100.00
73429;BME280;61643;49.564;17.412;2023-11-22T10:00:26;98942.31;;;-0.75;100.00
73429;BME280;61643;49.564;17.412;2023-11-22T10:02:54;98932.41;;;-0.89;100.00
73429;BME280;61643;49.564;17.412;2023-11-22T10:05:20;98934.91;;;-0.88;100.00
73429;BME280;61643;49.564;17.412;2023-11-22T10:07:47;98920.19;;;-0.90;100.00
73429;BME280;61643;49.564;17.412;2023-11-22T10:10:15;98918.69;;;-0.85;100.00
73429;BME280;61643;49.564;17.412;2023-11-22T10:12:44;98917.72;;;-0.84;100.00
73429;BME280;61643;49.564;17.412;2023-11-22T10:15:15;98917.88;;;-0.85;100.00
73429;BME280;61643;49.564;17.412;2023-11-22T10:17:49;98923.00;;;-1.00;100.00
73429;BME280;61643;49.564;17.412;2023-11-22T10:20:25;98915.06;;;-0.84;100.00
73429;BME280;61643;49.564;17.412;2023-11-22T10:22:53;98912.75;;;-0.79;100.00
73429;BME280;61643;49.564;17.412;2023-11-22T10:25:20;98910.25;;;-0.72;100.00
73429;BME280;61643;49.564;17.412;2023-11-22T10:27:46;98925.94;;;-0.71;100.00
73429;BME280;61643;49.564;17.412;2023-11-22T10:30:13;98927.28;;;-0.83;100.00
73429;BME280;61643;49.564;17.412;2023-11-22T10:32:41;98939.34;;;-0.88;100.00
73429;BME280;61643;49.564;17.412;2023-11-22T10:35:08;98944.81;;;-0.98;100.00
73429;BME280;61643;49.564;17.412;2023-11-22T10:37:37;98958.00;;;-0.74;100.00
73429;BME280;61643;49.564;17.412;2023-11-22T10:40:04;98948.41;;;-0.75;100.00
73429;BME280;61643;49.564;17.412;2023-11-22T10:42:32;98953.56;;;-0.81;100.00
73429;BME280;61643;49.564;17.412;2023-11-22T10:45:00;98929.13;;;-0.83;100.00
73429;BME280;61643;49.564;17.412;2023-11-22T10:47:29;98928.63;;;-0.95;100.00
73429;BME280;61643;49.564;17.412;2023-11-22T10:49:55;98933.72;;;-0.93;100.00
73429;BME280;61643;49.564;17.412;2023-11-22T10:52:26;98924.81;;;-1.01;100.00
73429;BME280;61643;49.564;17.412;2023-11-22T10:55:00;98928.94;;;-0.82;100.00
73429;BME280;61643;49.564;17.412;2023-11-22T10:57:42;98948.59;;;-1.01;100.00
73429;BME280;61643;49.564;17.412;2023-11-22T11:00:11;98942.31;;;-1.00;100.00
73429;BME280;61643;49.564;17.412;2023-11-22T11:02:45;98943.31;;;-1.01;100.00
73429;BME280;61643;49.564;17.412;2023-11-22T11:05:21;98939.03;;;-1.02;100.00
73429;BME280;61643;49.564;17.412;2023-11-22T11:08:07;98968.56;;;-0.90;100.00
73429;BME280;61643;49.564;17.412;2023-11-22T11:10:40;98976.34;;;-0.88;100.00
73429;BME280;61643;49.564;17.412;2023-11-22T11:13:07;98978.66;;;-1.02;100.00
73429;BME280;61643;49.564;17.412;2023-11-22T11:15:39;98985.94;;;-0.95;100.00
73429;BME280;61643;49.564;17.412;2023-11-22T11:18:06;98994.00;;;-0.89;100.00
73429;BME280;61643;49.564;17.412;2023-11-22T11:20:56;98989.41;;;-0.87;100.00
73429;BME280;61643;49.564;17.412;2023-11-22T11:23:24;98987.06;;;-0.82;100.00
73429;BME280;61643;49.564;17.412;2023-11-22T11:25:52;98981.31;;;-0.69;100.00
73429;BME280;61643;49.564;17.412;2023-11-22T11:28:20;98984.25;;;-0.64;100.00
73429;BME280;61643;49.564;17.412;2023-11-22T11:30:47;98983.59;;;-0.58;100.00
73429;BME280;61643;49.564;17.412;2023-11-22T11:33:18;98980.63;;;-0.63;100.00
73429;BME280;61643;49.564;17.412;2023-11-22T11:35:49;98985.41;;;-0.67;100.00
73429;BME280;61643;49.564;17.412;2023-11-22T11:38:35;98967.22;;;-0.54;100.00
73429;BME280;61643;49.564;17.412;2023-11-22T11:41:11;98978.81;;;-0.71;100.00
73429;BME280;61643;49.564;17.412;2023-11-22T11:46:07;98997.16;;;-0.77;100.00
73429;BME280;61643;49.564;17.412;2023-11-22T11:48:36;99002.59;;;-0.79;100.00
73429;BME280;61643;49.564;17.412;2023-11-22T11:51:02;99007.22;;;-0.89;100.00
73429;BME280;61643;49.564;17.412;2023-11-22T11:53:28;99002.25;;;-0.76;100.00
73429;BME280;61643;49.564;17.412;2023-11-22T11:55:57;99011.34;;;-0.78;100.00
73429;BME280;61643;49.564;17.412;2023-11-22T11:58:23;99027.06;;;-0.77;100.00
73429;BME280;61643;49.564;17.412;2023-11-22T12:00:51;99036.13;;;-0.71;100.00
73429;BME280;61643;49.564;17.412;2023-11-22T12:03:18;99036.13;;;-0.71;100.00
73429;BME280;61643;49.564;17.412;2023-11-22T12:05:49;99038.44;;;-0.68;100.00
73429;BME280;61643;49.564;17.412;2023-11-22T12:08:16;99036.78;;;-0.85;100.00
73429;BME280;61643;49.564;17.412;2023-11-22T12:10:43;99034.16;;;-0.85;100.00
73429;BME280;61643;49.564;17.412;2023-11-22T12:13:09;99037.09;;;-0.96;100.00
73429;BME280;61643;49.564;17.412;2023-11-22T12:15:35;99058.25;;;-0.96;100.00
73429;BME280;61643;49.564;17.412;2023-11-22T12:18:01;99048.97;;;-1.01;100.00
73429;BME280;61643;49.564;17.412;2023-11-22T12:20:27;99044.34;;;-1.15;100.00
73429;BME280;61643;49.564;17.412;2023-11-22T12:22:58;99051.63;;;-1.09;100.00
73429;BME280;61643;49.564;17.412;2023-11-22T12:25:27;99054.22;;;-1.25;100.00
73429;BME280;61643;49.564;17.412;2023-11-22T12:27:56;99066.16;;;-1.13;100.00
73429;BME280;61643;49.564;17.412;2023-11-22T12:32:55;99058.19;;;-1.21;100.00
73429;BME280;61643;49.564;17.412;2023-11-22T12:35:22;99039.53;;;-1.19;100.00
73429;BME280;61643;49.564;17.412;2023-11-22T12:37:49;99035.59;;;-1.23;100.00
73429;BME280;61643;49.564;17.412;2023-11-22T12:40:15;99040.03;;;-1.24;100.00
73429;BME280;61643;49.564;17.412;2023-11-22T12:42:50;99029.47;;;-1.16;100.00
73429;BME280;61643;49.564;17.412;2023-11-22T12:45:20;99035.28;;;-1.04;100.00
73429;BME280;61643;49.564;17.412;2023-11-22T12:47:47;99026.88;;;-1.00;100.00
73429;BME280;61643;49.564;17.412;2023-11-22T12:52:58;99025.03;;;-1.15;100.00
73429;BME280;61643;49.564;17.412;2023-11-22T12:55:24;99032.13;;;-1.16;100.00
73429;BME280;61643;49.564;17.412;2023-11-22T12:57:58;99029.00;;;-1.11;100.00